ECYZA LEIB-LEIB

Flight info

Callsign ECYZA
Flight time 0h 42m
Altitude 1000
Route VFR
Aircraft COL4/L-SDGY/C

Departure

Time 2026-05-01 14:23
Airport Ibiza Airport (LEIB)

Arrival

Time 2026-05-01 15:05
Airport Ibiza Airport (LEIB)
Time Latitude Longitude Altitude Speed Heading
2026-05-01 14:10 38.87856 1.37764 24 ft 0 kts 243°
2026-05-01 14:12 38.87841 1.37758 24 ft 4 kts 169°
2026-05-01 14:13 38.87811 1.37718 24 ft 9 kts 242°
2026-05-01 14:13 38.87783 1.37650 24 ft 16 kts 241°
2026-05-01 14:13 38.87716 1.37493 24 ft 11 kts 230°
2026-05-01 14:13 38.87644 1.37513 24 ft 17 kts 152°
2026-05-01 14:14 38.87525 1.37489 24 ft 16 kts 256°
2026-05-01 14:14 38.87489 1.37358 24 ft 19 kts 245°
2026-05-01 14:14 38.87428 1.37207 24 ft 17 kts 248°
2026-05-01 14:14 38.87373 1.37074 24 ft 16 kts 240°
2026-05-01 14:15 38.87320 1.36945 24 ft 16 kts 241°
2026-05-01 14:15 38.87268 1.36825 24 ft 14 kts 240°
2026-05-01 14:15 38.87215 1.36701 24 ft 15 kts 240°
2026-05-01 14:15 38.87171 1.36590 24 ft 15 kts 240°
2026-05-01 14:16 38.87117 1.36458 24 ft 18 kts 243°
2026-05-01 14:16 38.87058 1.36311 24 ft 16 kts 243°
2026-05-01 14:16 38.87006 1.36202 24 ft 14 kts 243°
2026-05-01 14:16 38.86968 1.36089 24 ft 13 kts 239°
2026-05-01 14:17 38.86927 1.35996 24 ft 10 kts 241°
2026-05-01 14:17 38.86892 1.35909 24 ft 12 kts 243°
2026-05-01 14:17 38.86847 1.35803 24 ft 12 kts 245°
2026-05-01 14:17 38.86790 1.35776 24 ft 9 kts 154°
2026-05-01 14:18 38.86755 1.35803 24 ft 0 kts 121°
2026-05-01 14:19 38.86747 1.35819 24 ft 6 kts 121°
2026-05-01 14:20 38.86718 1.35918 24 ft 10 kts 97°
2026-05-01 14:20 38.86729 1.35971 24 ft 0 kts 65°
2026-05-01 14:21 38.86735 1.35986 24 ft 15 kts 57°
2026-05-01 14:21 38.86902 1.36389 24 ft 81 kts 62°
2026-05-01 14:22 38.87584 1.37988 176 ft 109 kts 66°
2026-05-01 14:22 38.87947 1.38864 302 ft 112 kts 64°
2026-05-01 14:22 38.88273 1.39760 420 ft 108 kts 81°
2026-05-01 14:22 38.88182 1.40653 552 ft 98 kts 127°
2026-05-01 14:23 38.87654 1.41146 682 ft 94 kts 164°
2026-05-01 14:23 38.86966 1.40987 809 ft 107 kts 210°
2026-05-01 14:23 38.86488 1.40265 948 ft 108 kts 239°
2026-05-01 14:23 38.86114 1.39427 1001 ft 109 kts 240°
2026-05-01 14:24 38.85743 1.38570 1006 ft 108 kts 241°
2026-05-01 14:24 38.85387 1.37725 1005 ft 107 kts 241°
2026-05-01 14:24 38.85033 1.36882 1008 ft 108 kts 241°
2026-05-01 14:24 38.84685 1.36069 1007 ft 107 kts 240°
2026-05-01 14:25 38.84478 1.35157 911 ft 116 kts 283°
2026-05-01 14:25 38.85066 1.34466 620 ft 118 kts 350°
2026-05-01 14:25 38.85807 1.34550 459 ft 98 kts 24°
2026-05-01 14:25 38.86323 1.35048 261 ft 93 kts 52°
2026-05-01 14:26 38.86648 1.35767 78 ft 93 kts 64°
2026-05-01 14:26 38.87281 1.37376 324 ft 121 kts 66°
2026-05-01 14:26 38.87660 1.38351 868 ft 116 kts 63°
2026-05-01 14:27 38.87923 1.39301 992 ft 113 kts 79°
2026-05-01 14:27 38.87795 1.40288 1007 ft 116 kts 118°
2026-05-01 14:27 38.87212 1.41030 1013 ft 119 kts 142°
2026-05-01 14:28 38.85719 1.40723 987 ft 112 kts 230°
2026-05-01 14:28 38.85319 1.39894 1014 ft 109 kts 240°
2026-05-01 14:28 38.84947 1.39040 1000 ft 108 kts 240°
2026-05-01 14:28 38.84581 1.38187 1009 ft 108 kts 240°
2026-05-01 14:29 38.84230 1.37339 1011 ft 108 kts 240°
2026-05-01 14:29 38.83879 1.36486 1005 ft 108 kts 242°
2026-05-01 14:30 38.84748 1.34245 1007 ft 107 kts 337°
2026-05-01 14:30 38.85489 1.34410 668 ft 114 kts 28°
2026-05-01 14:30 38.86149 1.34886 390 ft 106 kts 40°
2026-05-01 14:31 38.86891 1.36358 31 ft 101 kts 62°
2026-05-01 14:31 38.87219 1.37118 518 ft 95 kts 61°
2026-05-01 14:31 38.87540 1.37913 748 ft 106 kts 64°
2026-05-01 14:31 38.87878 1.38768 850 ft 108 kts 64°
2026-05-01 14:32 38.87982 1.39685 943 ft 107 kts 104°
2026-05-01 14:32 38.87512 1.40441 1006 ft 112 kts 146°
2026-05-01 14:32 38.86765 1.40582 1008 ft 117 kts 192°
2026-05-01 14:32 38.86107 1.39994 1015 ft 117 kts 233°
2026-05-01 14:33 38.85693 1.39089 995 ft 117 kts 240°
2026-05-01 14:33 38.85317 1.38176 1008 ft 117 kts 240°
2026-05-01 14:33 38.84934 1.37254 1011 ft 117 kts 238°
2026-05-01 14:33 38.84376 1.36657 960 ft 96 kts 192°
2026-05-01 14:34 38.83766 1.36720 998 ft 86 kts 148°
2026-05-01 14:34 38.83376 1.37292 979 ft 83 kts 105°
2026-05-01 14:34 38.83438 1.38035 1019 ft 87 kts 59°
2026-05-01 14:34 38.83905 1.38490 1012 ft 85 kts 15°
2026-05-01 14:35 38.84503 1.38372 1012 ft 93 kts 332°
2026-05-01 14:35 38.84911 1.37717 1015 ft 96 kts 289°
2026-05-01 14:35 38.84875 1.36870 1006 ft 97 kts 245°
2026-05-01 14:35 38.84425 1.36279 1008 ft 93 kts 200°
2026-05-01 14:36 38.83796 1.36234 1008 ft 90 kts 156°
2026-05-01 14:36 38.83346 1.36736 1003 ft 85 kts 112°
2026-05-01 14:36 38.83328 1.37477 1009 ft 84 kts 67°
2026-05-01 14:36 38.83738 1.37998 1007 ft 87 kts 23°
2026-05-01 14:37 38.84356 1.37989 1020 ft 94 kts 340°
2026-05-01 14:37 38.84825 1.37422 1021 ft 96 kts 297°
2026-05-01 14:37 38.84880 1.36575 995 ft 97 kts 253°
2026-05-01 14:37 38.84530 1.35860 1009 ft 95 kts 219°
2026-05-01 14:38 38.83931 1.35561 1008 ft 93 kts 175°
2026-05-01 14:38 38.83385 1.35852 1013 ft 85 kts 131°
2026-05-01 14:38 38.83178 1.36547 1009 ft 86 kts 84°
2026-05-01 14:38 38.83429 1.37212 1009 ft 87 kts 43°
2026-05-01 14:39 38.84010 1.37454 1013 ft 93 kts 359°
2026-05-01 14:39 38.84581 1.37109 1018 ft 93 kts 316°
2026-05-01 14:39 38.84830 1.36338 1001 ft 96 kts 271°
2026-05-01 14:39 38.84656 1.35508 1011 ft 96 kts 243°
2026-05-01 14:40 38.84429 1.34708 1006 ft 97 kts 269°
2026-05-01 14:40 38.84636 1.33912 1012 ft 94 kts 314°
2026-05-01 14:40 38.85150 1.33463 979 ft 91 kts 352°
2026-05-01 14:40 38.85714 1.33855 672 ft 99 kts 50°
2026-05-01 14:41 38.86113 1.34574 388 ft 98 kts 57°
2026-05-01 14:41 38.86462 1.35308 163 ft 94 kts 62°
2026-05-01 14:41 38.86754 1.36030 25 ft 88 kts 62°
2026-05-01 14:41 38.87074 1.36792 229 ft 107 kts 63°
2026-05-01 14:42 38.87409 1.37594 390 ft 101 kts 64°
2026-05-01 14:42 38.87713 1.38415 518 ft 102 kts 65°
2026-05-01 14:42 38.88005 1.39261 645 ft 104 kts 73°
2026-05-01 14:42 38.87921 1.40148 770 ft 105 kts 120°
2026-05-01 14:43 38.87336 1.40759 904 ft 111 kts 149°
2026-05-01 14:43 38.86585 1.40884 999 ft 114 kts 192°
2026-05-01 14:43 38.85943 1.40287 1011 ft 117 kts 233°
2026-05-01 14:43 38.85534 1.39391 1013 ft 117 kts 240°
2026-05-01 14:44 38.85152 1.38502 994 ft 112 kts 240°
2026-05-01 14:44 38.84425 1.36798 1001 ft 107 kts 233°
2026-05-01 14:44 38.83820 1.36289 1008 ft 106 kts 188°
2026-05-01 14:45 38.83121 1.36448 1009 ft 102 kts 144°
2026-05-01 14:45 38.82857 1.37986 1009 ft 97 kts 56°
2026-05-01 14:45 38.83414 1.38441 1009 ft 100 kts 12°
2026-05-01 14:46 38.84102 1.38242 1010 ft 106 kts 328°
2026-05-01 14:46 38.84502 1.36546 1000 ft 109 kts 244°
2026-05-01 14:46 38.83985 1.35892 1008 ft 106 kts 200°
2026-05-01 14:47 38.83275 1.35862 1008 ft 102 kts 155°
2026-05-01 14:47 38.82773 1.36456 1009 ft 97 kts 112°
2026-05-01 14:47 38.82760 1.37292 1009 ft 97 kts 68°
2026-05-01 14:48 38.83925 1.37933 1021 ft 102 kts 355°
2026-05-01 14:48 38.84616 1.37662 1007 ft 106 kts 326°
2026-05-01 14:48 38.84897 1.35931 1008 ft 109 kts 239°
2026-05-01 14:49 38.83635 1.35387 1016 ft 102 kts 150°
2026-05-01 14:49 38.83230 1.36882 1009 ft 97 kts 62°
2026-05-01 14:50 38.83973 1.37472 1014 ft 100 kts
2026-05-01 14:50 38.84862 1.35682 1010 ft 108 kts 248°
2026-05-01 14:51 38.84535 1.34813 1009 ft 109 kts 245°
2026-05-01 14:51 38.84975 1.33226 907 ft 103 kts 354°
2026-05-01 14:52 38.85982 1.34226 576 ft 94 kts 59°
2026-05-01 14:52 38.86328 1.34964 286 ft 95 kts 65°
2026-05-01 14:52 38.86888 1.36357 32 ft 85 kts 63°
2026-05-01 14:53 38.87186 1.37102 257 ft 102 kts 65°
2026-05-01 14:53 38.87516 1.37873 661 ft 102 kts 66°
2026-05-01 14:53 38.87787 1.38658 1005 ft 98 kts 63°
2026-05-01 14:53 38.87947 1.39493 1002 ft 99 kts 98°
2026-05-01 14:54 38.87582 1.40217 1003 ft 99 kts 142°
2026-05-01 14:54 38.86895 1.40470 1012 ft 106 kts 183°
2026-05-01 14:54 38.86248 1.40048 1017 ft 109 kts 226°
2026-05-01 14:54 38.85843 1.39224 1005 ft 109 kts 240°
2026-05-01 14:55 38.85480 1.38356 1007 ft 110 kts 240°
2026-05-01 14:55 38.85120 1.37498 1007 ft 108 kts 239°
2026-05-01 14:55 38.84760 1.36643 986 ft 108 kts 230°
2026-05-01 14:55 38.84136 1.36148 1008 ft 108 kts 187°
2026-05-01 14:56 38.83440 1.36321 1009 ft 100 kts 142°
2026-05-01 14:56 38.83064 1.37020 1009 ft 95 kts 105°
2026-05-01 14:56 38.83138 1.37841 1008 ft 95 kts 59°
2026-05-01 14:56 38.83678 1.38348 1008 ft 101 kts 16°
2026-05-01 14:57 38.84372 1.38307 1010 ft 104 kts 341°
2026-05-01 14:57 38.85009 1.36716 1010 ft 109 kts 258°
2026-05-01 14:57 38.84707 1.35833 1011 ft 108 kts 242°
2026-05-01 14:58 38.84383 1.34966 981 ft 112 kts 259°
2026-05-01 14:58 38.84681 1.34036 835 ft 114 kts 326°
2026-05-01 14:58 38.85397 1.33929 741 ft 108 kts 28°
2026-05-01 14:58 38.85972 1.34469 498 ft 100 kts 42°
2026-05-01 14:59 38.86406 1.35136 251 ft 94 kts 68°
2026-05-01 14:59 38.86684 1.35852 70 ft 86 kts 62°
2026-05-01 14:59 38.86969 1.36547 50 ft 102 kts 63°
2026-05-01 14:59 38.87291 1.37373 480 ft 102 kts 63°
2026-05-01 15:00 38.87969 1.38948 1009 ft 111 kts 53°
2026-05-01 15:00 38.88643 1.39419 1007 ft 116 kts
2026-05-01 15:00 38.89417 1.39153 1008 ft 117 kts 328°
2026-05-01 15:01 38.89870 1.38276 1008 ft 121 kts 284°
2026-05-01 15:01 38.89762 1.37222 1011 ft 122 kts 245°
2026-05-01 15:01 38.89376 1.36238 1010 ft 122 kts 241°
2026-05-01 15:01 38.88976 1.35283 1001 ft 115 kts 240°
2026-05-01 15:02 38.88604 1.34405 1017 ft 110 kts 241°
2026-05-01 15:02 38.88357 1.33841 997 ft 110 kts 240°
2026-05-01 15:02 38.87870 1.32689 989 ft 109 kts 240°
2026-05-01 15:02 38.87436 1.31905 1000 ft 107 kts 212°
2026-05-01 15:03 38.86764 1.31666 1011 ft 100 kts 172°
2026-05-01 15:03 38.86117 1.31932 1005 ft 99 kts 136°
2026-05-01 15:03 38.85712 1.32636 1010 ft 96 kts 118°
2026-05-01 15:03 38.85679 1.33474 703 ft 107 kts 68°
2026-05-01 15:04 38.86053 1.34303 370 ft 104 kts 64°
2026-05-01 15:04 38.86374 1.35069 211 ft 92 kts 63°
2026-05-01 15:04 38.86655 1.35778 77 ft 87 kts 64°
2026-05-01 15:04 38.86929 1.36444 43 ft 79 kts 63°
2026-05-01 15:05 38.87166 1.37025 24 ft 63 kts 63°
2026-05-01 15:05 38.87330 1.37391 24 ft 34 kts 43°
2026-05-01 15:05 38.87495 1.37532 24 ft 25 kts 34°
2026-05-01 15:05 38.87613 1.37538 24 ft 18 kts 334°
2026-05-01 15:06 38.87720 1.37500 24 ft 12 kts 60°
2026-05-01 15:06 38.87763 1.37603 24 ft 16 kts 61°
2026-05-01 15:06 38.87807 1.37710 24 ft 10 kts 59°
2026-05-01 15:06 38.87841 1.37757 24 ft 6 kts 313°
2026-05-01 15:07 38.87843 1.37732 24 ft 0 kts 248°